sensor_id;sensor_type;location;lat;lon;timestamp;temperature;humidity
1992;DHT22;997;48.448;8.924;2023-09-30T03:02:25;17.10;99.90
1992;DHT22;997;48.448;8.924;2023-09-30T03:04:51;17.20;99.90
1992;DHT22;997;48.448;8.924;2023-09-30T03:07:18;17.30;99.90
1992;DHT22;997;48.448;8.924;2023-09-30T03:09:46;17.30;99.90
1992;DHT22;997;48.448;8.924;2023-09-30T03:12:12;17.30;99.90
1992;DHT22;997;48.448;8.924;2023-09-30T03:14:38;17.20;99.90
1992;DHT22;997;48.448;8.924;2023-09-30T03:17:05;17.10;99.90
1992;DHT22;997;48.448;8.924;2023-09-30T03:19:36;17.10;99.90
1992;DHT22;997;48.448;8.924;2023-09-30T03:22:03;17.10;99.90
1992;DHT22;997;48.448;8.924;2023-09-30T03:24:30;17.10;99.90
1992;DHT22;997;48.448;8.924;2023-09-30T03:26:56;17.10;99.90
1992;DHT22;997;48.448;8.924;2023-09-30T03:29:23;16.90;99.90
1992;DHT22;997;48.448;8.924;2023-09-30T03:31:48;16.90;99.90
1992;DHT22;997;48.448;8.924;2023-09-30T03:34:14;16.90;99.90
1992;DHT22;997;48.448;8.924;2023-09-30T03:36:42;16.90;99.90
1992;DHT22;997;48.448;8.924;2023-09-30T03:39:08;17.00;99.90
1992;DHT22;997;48.448;8.924;2023-09-30T03:41:34;16.90;99.90
1992;DHT22;997;48.448;8.924;2023-09-30T03:44:02;17.00;99.90
1992;DHT22;997;48.448;8.924;2023-09-30T03:46:28;16.90;99.90
1992;DHT22;997;48.448;8.924;2023-09-30T03:48:54;16.90;99.90
1992;DHT22;997;48.448;8.924;2023-09-30T03:51:21;16.90;99.90
1992;DHT22;997;48.448;8.924;2023-09-30T03:53:50;16.80;99.90
1992;DHT22;997;48.448;8.924;2023-09-30T03:56:17;16.60;99.90
1992;DHT22;997;48.448;8.924;2023-09-30T03:58:44;16.50;99.90
1992;DHT22;997;48.448;8.924;2023-09-30T04:01:10;16.40;99.90
1992;DHT22;997;48.448;8.924;2023-09-30T04:03:37;16.40;99.90
1992;DHT22;997;48.448;8.924;2023-09-30T04:06:05;16.30;99.90
1992;DHT22;997;48.448;8.924;2023-09-30T04:08:33;16.20;99.90
1992;DHT22;997;48.448;8.924;2023-09-30T04:11:00;16.20;99.90
1992;DHT22;997;48.448;8.924;2023-09-30T04:13:26;16.20;99.90
1992;DHT22;997;48.448;8.924;2023-09-30T04:15:52;16.10;99.90
1992;DHT22;997;48.448;8.924;2023-09-30T04:18:18;16.00;99.90
1992;DHT22;997;48.448;8.924;2023-09-30T04:20:47;15.80;99.90
1992;DHT22;997;48.448;8.924;2023-09-30T04:23:13;15.90;99.90
1992;DHT22;997;48.448;8.924;2023-09-30T04:25:39;15.90;99.90
1992;DHT22;997;48.448;8.924;2023-09-30T04:28:05;16.00;99.90
1992;DHT22;997;48.448;8.924;2023-09-30T04:30:32;16.00;99.90
1992;DHT22;997;48.448;8.924;2023-09-30T04:32:59;16.00;99.90
1992;DHT22;997;48.448;8.924;2023-09-30T04:35:25;16.10;99.90
1992;DHT22;997;48.448;8.924;2023-09-30T04:37:51;16.20;99.90
1992;DHT22;997;48.448;8.924;2023-09-30T04:40:18;16.30;99.90
1992;DHT22;997;48.448;8.924;2023-09-30T04:42:47;16.40;99.90
1992;DHT22;997;48.448;8.924;2023-09-30T04:45:14;16.40;99.90
1992;DHT22;997;48.448;8.924;2023-09-30T04:47:45;16.40;99.90
1992;DHT22;997;48.448;8.924;2023-09-30T04:50:11;16.10;99.90
1992;DHT22;997;48.448;8.924;2023-09-30T04:52:38;16.10;99.90
1992;DHT22;997;48.448;8.924;2023-09-30T04:55:06;16.10;99.90
1992;DHT22;997;48.448;8.924;2023-09-30T04:57:32;16.10;99.90
1992;DHT22;997;48.448;8.924;2023-09-30T04:59:58;16.10;99.90
1992;DHT22;997;48.448;8.924;2023-09-30T05:02:24;16.20;99.90
1992;DHT22;997;48.448;8.924;2023-09-30T05:04:50;16.20;99.90
1992;DHT22;997;48.448;8.924;2023-09-30T05:07:16;16.20;99.90
1992;DHT22;997;48.448;8.924;2023-09-30T05:09:41;16.20;99.90
1992;DHT22;997;48.448;8.924;2023-09-30T05:12:08;16.20;99.90
1992;DHT22;997;48.448;8.924;2023-09-30T05:14:35;16.20;99.90
1992;DHT22;997;48.448;8.924;2023-09-30T05:17:02;16.20;99.90
1992;DHT22;997;48.448;8.924;2023-09-30T05:19:29;16.20;99.90
1992;DHT22;997;48.448;8.924;2023-09-30T05:21:57;16.20;99.90
1992;DHT22;997;48.448;8.924;2023-09-30T05:24:23;16.20;99.90
1992;DHT22;997;48.448;8.924;2023-09-30T05:26:48;16.20;99.90
1992;DHT22;997;48.448;8.924;2023-09-30T05:29:14;16.20;99.90
1992;DHT22;997;48.448;8.924;2023-09-30T05:31:40;16.20;99.90
1992;DHT22;997;48.448;8.924;2023-09-30T05:34:05;16.20;99.90
1992;DHT22;997;48.448;8.924;2023-09-30T05:36:31;16.10;99.90
1992;DHT22;997;48.448;8.924;2023-09-30T05:38:57;16.10;99.90
1992;DHT22;997;48.448;8.924;2023-09-30T05:41:23;16.00;99.90
1992;DHT22;997;48.448;8.924;2023-09-30T05:43:48;16.00;99.90
1992;DHT22;997;48.448;8.924;2023-09-30T05:46:15;16.00;99.90
1992;DHT22;997;48.448;8.924;2023-09-30T05:48:41;16.00;99.90
1992;DHT22;997;48.448;8.924;2023-09-30T05:51:07;15.90;99.90
1992;DHT22;997;48.448;8.924;2023-09-30T05:53:33;15.90;99.90
1992;DHT22;997;48.448;8.924;2023-09-30T05:55:59;15.80;99.90
1992;DHT22;997;48.448;8.924;2023-09-30T05:58:25;15.70;99.90
1992;DHT22;997;48.448;8.924;2023-09-30T06:00:52;15.70;99.90
1992;DHT22;997;48.448;8.924;2023-09-30T06:03:19;15.80;99.90
1992;DHT22;997;48.448;8.924;2023-09-30T06:05:47;15.90;99.90
1992;DHT22;997;48.448;8.924;2023-09-30T06:08:14;15.90;99.90
1992;DHT22;997;48.448;8.924;2023-09-30T06:10:43;16.00;99.90
1992;DHT22;997;48.448;8.924;2023-09-30T06:13:12;16.00;99.90
1992;DHT22;997;48.448;8.924;2023-09-30T06:15:39;16.10;99.90
1992;DHT22;997;48.448;8.924;2023-09-30T06:18:06;16.20;99.90
1992;DHT22;997;48.448;8.924;2023-09-30T06:20:32;16.10;99.90
1992;DHT22;997;48.448;8.924;2023-09-30T06:22:59;16.00;99.90
1992;DHT22;997;48.448;8.924;2023-09-30T06:25:26;15.70;99.90
1992;DHT22;997;48.448;8.924;2023-09-30T06:27:59;15.50;99.90
1992;DHT22;997;48.448;8.924;2023-09-30T06:30:24;15.40;99.90
1992;DHT22;997;48.448;8.924;2023-09-30T06:32:58;15.60;99.90
1992;DHT22;997;48.448;8.924;2023-09-30T06:35:25;15.70;99.90
1992;DHT22;997;48.448;8.924;2023-09-30T06:37:52;15.70;99.90
1992;DHT22;997;48.448;8.924;2023-09-30T06:40:17;15.80;99.90
1992;DHT22;997;48.448;8.924;2023-09-30T06:42:44;15.90;99.90
1992;DHT22;997;48.448;8.924;2023-09-30T06:45:10;16.00;99.90
1992;DHT22;997;48.448;8.924;2023-09-30T06:47:40;16.20;99.90
1992;DHT22;997;48.448;8.924;2023-09-30T06:50:13;16.10;99.90
1992;DHT22;997;48.448;8.924;2023-09-30T06:52:43;16.10;99.90
1992;DHT22;997;48.448;8.924;2023-09-30T06:55:11;16.10;99.90
1992;DHT22;997;48.448;8.924;2023-09-30T06:57:39;16.00;99.90
1992;DHT22;997;48.448;8.924;2023-09-30T07:00:10;16.10;99.90
1992;DHT22;997;48.448;8.924;2023-09-30T07:02:37;16.10;99.90
1992;DHT22;997;48.448;8.924;2023-09-30T07:05:11;16.10;99.90
1992;DHT22;997;48.448;8.924;2023-09-30T07:07:37;16.10;99.90
1992;DHT22;997;48.448;8.924;2023-09-30T07:10:03;16.10;99.90
1992;DHT22;997;48.448;8.924;2023-09-30T07:12:32;16.10;99.90
1992;DHT22;997;48.448;8.924;2023-09-30T07:15:09;16.00;99.90
1992;DHT22;997;48.448;8.924;2023-09-30T07:17:35;16.10;99.90
1992;DHT22;997;48.448;8.924;2023-09-30T07:20:04;16.10;99.90
1992;DHT22;997;48.448;8.924;2023-09-30T07:22:31;16.20;99.90
1992;DHT22;997;48.448;8.924;2023-09-30T07:24:57;16.30;99.90
1992;DHT22;997;48.448;8.924;2023-09-30T07:27:23;16.40;99.90
1992;DHT22;997;48.448;8.924;2023-09-30T07:29:49;16.40;99.90
1992;DHT22;997;48.448;8.924;2023-09-30T07:32:15;16.40;99.90
1992;DHT22;997;48.448;8.924;2023-09-30T07:34:41;16.40;99.90
1992;DHT22;997;48.448;8.924;2023-09-30T07:37:07;16.50;99.90
1992;DHT22;997;48.448;8.924;2023-09-30T07:39:34;16.50;99.90
1992;DHT22;997;48.448;8.924;2023-09-30T07:42:00;16.70;99.90
1992;DHT22;997;48.448;8.924;2023-09-30T07:44:26;16.80;99.90
1992;DHT22;997;48.448;8.924;2023-09-30T07:46:52;17.00;99.90
1992;DHT22;997;48.448;8.924;2023-09-30T07:49:18;17.00;99.90
1992;DHT22;997;48.448;8.924;2023-09-30T07:51:44;17.00;99.90
1992;DHT22;997;48.448;8.924;2023-09-30T07:54:09;16.80;99.90
1992;DHT22;997;48.448;8.924;2023-09-30T07:56:35;16.40;99.90
1992;DHT22;997;48.448;8.924;2023-09-30T07:59:01;16.40;99.90
1992;DHT22;997;48.448;8.924;2023-09-30T08:01:27;16.30;99.90
1992;DHT22;997;48.448;8.924;2023-09-30T08:03:54;16.40;99.90
1992;DHT22;997;48.448;8.924;2023-09-30T08:06:20;16.60;99.90
1992;DHT22;997;48.448;8.924;2023-09-30T08:08:45;16.80;99.90
1992;DHT22;997;48.448;8.924;2023-09-30T08:11:12;17.00;99.90
1992;DHT22;997;48.448;8.924;2023-09-30T08:13:38;17.20;99.90
1992;DHT22;997;48.448;8.924;2023-09-30T08:16:04;17.40;99.90
1992;DHT22;997;48.448;8.924;2023-09-30T08:18:30;17.50;99.90
1992;DHT22;997;48.448;8.924;2023-09-30T08:20:56;17.50;99.90
1992;DHT22;997;48.448;8.924;2023-09-30T08:23:21;17.40;99.90
1992;DHT22;997;48.448;8.924;2023-09-30T08:25:47;17.60;99.90
1992;DHT22;997;48.448;8.924;2023-09-30T08:28:13;17.60;99.90
1992;DHT22;997;48.448;8.924;2023-09-30T08:30:38;17.70;99.90
1992;DHT22;997;48.448;8.924;2023-09-30T08:33:04;17.80;99.90
1992;DHT22;997;48.448;8.924;2023-09-30T08:35:35;17.90;99.90
1992;DHT22;997;48.448;8.924;2023-09-30T08:38:01;18.00;99.90
1992;DHT22;997;48.448;8.924;2023-09-30T08:40:27;18.10;99.90
1992;DHT22;997;48.448;8.924;2023-09-30T08:42:53;18.20;99.90
1992;DHT22;997;48.448;8.924;2023-09-30T08:45:19;18.20;99.90
1992;DHT22;997;48.448;8.924;2023-09-30T08:47:46;18.20;99.90
1992;DHT22;997;48.448;8.924;2023-09-30T08:50:12;18.20;99.90
1992;DHT22;997;48.448;8.924;2023-09-30T08:52:41;18.30;99.90
1992;DHT22;997;48.448;8.924;2023-09-30T08:55:08;18.40;99.90
1992;DHT22;997;48.448;8.924;2023-09-30T08:57:37;18.50;99.90
1992;DHT22;997;48.448;8.924;2023-09-30T09:00:06;18.60;99.90
1992;DHT22;997;48.448;8.924;2023-09-30T09:07:41;19.00;99.90
1992;DHT22;997;48.448;8.924;2023-09-30T09:10:12;19.00;99.90
1992;DHT22;997;48.448;8.924;2023-09-30T09:12:44;19.10;99.90
1992;DHT22;997;48.448;8.924;2023-09-30T09:15:22;19.00;99.90
1992;DHT22;997;48.448;8.924;2023-09-30T09:17:51;19.10;99.90
1992;DHT22;997;48.448;8.924;2023-09-30T09:20:19;19.20;99.90
1992;DHT22;997;48.448;8.924;2023-09-30T09:22:52;19.20;99.90
1992;DHT22;997;48.448;8.924;2023-09-30T09:25:20;19.30;99.90
1992;DHT22;997;48.448;8.924;2023-09-30T09:27:49;19.50;99.90
1992;DHT22;997;48.448;8.924;2023-09-30T09:30:21;19.60;99.90
1992;DHT22;997;48.448;8.924;2023-09-30T09:32:56;19.70;99.90
1992;DHT22;997;48.448;8.924;2023-09-30T09:35:23;19.80;99.90
1992;DHT22;997;48.448;8.924;2023-09-30T09:38:00;19.90;99.90
1992;DHT22;997;48.448;8.924;2023-09-30T09:40:27;19.40;99.90
1992;DHT22;997;48.448;8.924;2023-09-30T09:43:04;19.20;99.90
1992;DHT22;997;48.448;8.924;2023-09-30T09:45:36;19.10;99.90
1992;DHT22;997;48.448;8.924;2023-09-30T09:48:04;19.20;99.90
1992;DHT22;997;48.448;8.924;2023-09-30T09:50:33;19.20;99.90
1992;DHT22;997;48.448;8.924;2023-09-30T09:53:02;19.20;99.90
1992;DHT22;997;48.448;8.924;2023-09-30T09:55:29;19.30;99.90
1992;DHT22;997;48.448;8.924;2023-09-30T09:57:56;19.30;99.90
1992;DHT22;997;48.448;8.924;2023-09-30T10:00:25;19.40;99.90
1992;DHT22;997;48.448;8.924;2023-09-30T10:02:51;19.50;99.90
1992;DHT22;997;48.448;8.924;2023-09-30T10:05:18;19.40;99.90
1992;DHT22;997;48.448;8.924;2023-09-30T10:10:20;19.20;99.90
1992;DHT22;997;48.448;8.924;2023-09-30T10:12:46;19.20;99.90
1992;DHT22;997;48.448;8.924;2023-09-30T10:18:00;18.80;99.90
1992;DHT22;997;48.448;8.924;2023-09-30T10:20:34;18.80;99.90
1992;DHT22;997;48.448;8.924;2023-09-30T10:23:25;19.10;99.90
1992;DHT22;997;48.448;8.924;2023-09-30T10:25:54;19.20;99.90
1992;DHT22;997;48.448;8.924;2023-09-30T10:28:42;19.20;99.90
1992;DHT22;997;48.448;8.924;2023-09-30T10:31:16;19.10;99.90
1992;DHT22;997;48.448;8.924;2023-09-30T10:36:29;19.10;99.90
1992;DHT22;997;48.448;8.924;2023-09-30T10:38:55;19.20;99.90
1992;DHT22;997;48.448;8.924;2023-09-30T10:46:57;20.00;99.90
1992;DHT22;997;48.448;8.924;2023-09-30T10:51:52;20.30;99.90
1992;DHT22;997;48.448;8.924;2023-09-30T10:54:23;20.70;99.90
1992;DHT22;997;48.448;8.924;2023-09-30T10:56:49;20.90;99.90
1992;DHT22;997;48.448;8.924;2023-09-30T10:59:25;20.90;99.90
1992;DHT22;997;48.448;8.924;2023-09-30T11:01:52;20.80;99.90
1992;DHT22;997;48.448;8.924;2023-09-30T11:04:19;20.70;99.90
1992;DHT22;997;48.448;8.924;2023-09-30T11:06:46;20.80;99.90
1992;DHT22;997;48.448;8.924;2023-09-30T11:09:19;21.10;99.90
1992;DHT22;997;48.448;8.924;2023-09-30T11:11:48;21.30;99.90
1992;DHT22;997;48.448;8.924;2023-09-30T11:14:27;21.50;99.90
1992;DHT22;997;48.448;8.924;2023-09-30T11:16:54;21.50;99.90
1992;DHT22;997;48.448;8.924;2023-09-30T11:19:21;21.30;99.90
1992;DHT22;997;48.448;8.924;2023-09-30T11:21:52;21.30;99.90
1992;DHT22;997;48.448;8.924;2023-09-30T11:24:18;21.10;99.90
1992;DHT22;997;48.448;8.924;2023-09-30T11:26:44;21.00;99.90
1992;DHT22;997;48.448;8.924;2023-09-30T11:29:13;20.90;99.90
1992;DHT22;997;48.448;8.924;2023-09-30T11:31:43;20.90;99.90
1992;DHT22;997;48.448;8.924;2023-09-30T11:34:10;20.90;99.90
1992;DHT22;997;48.448;8.924;2023-09-30T11:36:48;21.00;99.90
1992;DHT22;997;48.448;8.924;2023-09-30T11:39:25;21.30;99.90
1992;DHT22;997;48.448;8.924;2023-09-30T11:41:52;21.30;99.90
1992;DHT22;997;48.448;8.924;2023-09-30T11:44:18;21.40;99.90
1992;DHT22;997;48.448;8.924;2023-09-30T11:46:58;21.50;99.90
1992;DHT22;997;48.448;8.924;2023-09-30T11:49:37;21.60;99.90
1992;DHT22;997;48.448;8.924;2023-09-30T11:52:10;21.80;99.90
1992;DHT22;997;48.448;8.924;2023-09-30T11:54:41;22.00;99.90
1992;DHT22;997;48.448;8.924;2023-09-30T11:57:10;22.20;99.90
1992;DHT22;997;48.448;8.924;2023-09-30T11:59:39;22.50;99.90
1992;DHT22;997;48.448;8.924;2023-09-30T12:02:07;22.60;99.90
1992;DHT22;997;48.448;8.924;2023-09-30T12:04:34;22.80;99.90
1992;DHT22;997;48.448;8.924;2023-09-30T12:07:00;22.70;99.90
1992;DHT22;997;48.448;8.924;2023-09-30T12:09:26;22.70;99.90
1992;DHT22;997;48.448;8.924;2023-09-30T12:11:53;22.80;99.90
1992;DHT22;997;48.448;8.924;2023-09-30T12:14:20;22.80;99.90
1992;DHT22;997;48.448;8.924;2023-09-30T12:16:48;22.70;99.90
1992;DHT22;997;48.448;8.924;2023-09-30T12:19:16;22.70;99.90
1992;DHT22;997;48.448;8.924;2023-09-30T12:21:43;22.70;99.90
1992;DHT22;997;48.448;8.924;2023-09-30T12:24:13;22.80;99.90
1992;DHT22;997;48.448;8.924;2023-09-30T12:26:50;22.80;99.90
1992;DHT22;997;48.448;8.924;2023-09-30T12:29:21;22.90;99.90
1992;DHT22;997;48.448;8.924;2023-09-30T12:31:49;22.90;99.90
1992;DHT22;997;48.448;8.924;2023-09-30T12:34:15;23.00;99.90
1992;DHT22;997;48.448;8.924;2023-09-30T12:36:41;23.10;99.90
1992;DHT22;997;48.448;8.924;2023-09-30T12:39:08;23.10;99.90
1992;DHT22;997;48.448;8.924;2023-09-30T12:41:41;23.00;99.90
1992;DHT22;997;48.448;8.924;2023-09-30T12:44:08;22.70;99.90
1992;DHT22;997;48.448;8.924;2023-09-30T12:46:34;22.50;99.90
1992;DHT22;997;48.448;8.924;2023-09-30T12:49:03;22.50;99.90
1992;DHT22;997;48.448;8.924;2023-09-30T12:51:29;22.50;99.90
1992;DHT22;997;48.448;8.924;2023-09-30T12:53:55;22.40;99.90
1992;DHT22;997;48.448;8.924;2023-09-30T12:56:21;22.50;99.90
1992;DHT22;997;48.448;8.924;2023-09-30T12:58:47;22.60;99.90
1992;DHT22;997;48.448;8.924;2023-09-30T13:01:12;22.70;99.90
1992;DHT22;997;48.448;8.924;2023-09-30T13:03:39;22.70;99.90
1992;DHT22;997;48.448;8.924;2023-09-30T13:06:05;23.00;99.90
1992;DHT22;997;48.448;8.924;2023-09-30T13:08:30;23.20;99.90
1992;DHT22;997;48.448;8.924;2023-09-30T13:11:00;23.30;99.90
1992;DHT22;997;48.448;8.924;2023-09-30T13:13:28;23.20;99.90
1992;DHT22;997;48.448;8.924;2023-09-30T13:15:56;23.40;99.90
1992;DHT22;997;48.448;8.924;2023-09-30T13:18:23;23.50;99.90
1992;DHT22;997;48.448;8.924;2023-09-30T13:20:48;23.50;99.90
1992;DHT22;997;48.448;8.924;2023-09-30T13:23:14;23.60;99.90
1992;DHT22;997;48.448;8.924;2023-09-30T13:25:40;23.80;99.90
1992;DHT22;997;48.448;8.924;2023-09-30T13:28:05;23.70;99.90
1992;DHT22;997;48.448;8.924;2023-09-30T13:30:31;23.60;99.90
1992;DHT22;997;48.448;8.924;2023-09-30T13:32:57;23.50;99.90
1992;DHT22;997;48.448;8.924;2023-09-30T13:35:23;23.40;99.90
1992;DHT22;997;48.448;8.924;2023-09-30T13:37:49;23.30;99.90
1992;DHT22;997;48.448;8.924;2023-09-30T13:40:15;23.40;99.90
1992;DHT22;997;48.448;8.924;2023-09-30T13:42:40;23.40;99.90
1992;DHT22;997;48.448;8.924;2023-09-30T13:45:08;23.30;99.90
1992;DHT22;997;48.448;8.924;2023-09-30T13:47:35;23.30;99.90
1992;DHT22;997;48.448;8.924;2023-09-30T13:50:01;23.40;99.90
1992;DHT22;997;48.448;8.924;2023-09-30T13:52:29;23.40;99.90
1992;DHT22;997;48.448;8.924;2023-09-30T13:54:56;23.50;99.90
1992;DHT22;997;48.448;8.924;2023-09-30T13:57:22;23.60;99.90
1992;DHT22;997;48.448;8.924;2023-09-30T13:59:50;23.80;99.90
1992;DHT22;997;48.448;8.924;2023-09-30T14:02:15;23.80;99.90
1992;DHT22;997;48.448;8.924;2023-09-30T14:04:41;23.90;99.90
1992;DHT22;997;48.448;8.924;2023-09-30T14:07:07;24.00;99.90
1992;DHT22;997;48.448;8.924;2023-09-30T14:09:33;24.00;99.90
1992;DHT22;997;48.448;8.924;2023-09-30T14:12:00;24.00;99.90
1992;DHT22;997;48.448;8.924;2023-09-30T14:14:26;23.90;99.90
1992;DHT22;997;48.448;8.924;2023-09-30T14:16:52;24.00;99.90
1992;DHT22;997;48.448;8.924;2023-09-30T14:19:17;24.10;99.90
1992;DHT22;997;48.448;8.924;2023-09-30T14:21:43;24.10;99.90
1992;DHT22;997;48.448;8.924;2023-09-30T14:24:09;24.30;99.90
1992;DHT22;997;48.448;8.924;2023-09-30T14:26:35;24.20;99.90
1992;DHT22;997;48.448;8.924;2023-09-30T14:29:03;24.30;99.90
1992;DHT22;997;48.448;8.924;2023-09-30T14:31:29;24.30;99.90
1992;DHT22;997;48.448;8.924;2023-09-30T14:33:55;24.10;99.90
1992;DHT22;997;48.448;8.924;2023-09-30T14:36:20;24.20;99.90
1992;DHT22;997;48.448;8.924;2023-09-30T14:38:48;24.00;99.20
1992;DHT22;997;48.448;8.924;2023-09-30T14:41:15;24.00;99.90
1992;DHT22;997;48.448;8.924;2023-09-30T14:43:41;24.00;99.90
1992;DHT22;997;48.448;8.924;2023-09-30T14:46:06;24.20;99.90
1992;DHT22;997;48.448;8.924;2023-09-30T14:48:34;24.10;99.80
1992;DHT22;997;48.448;8.924;2023-09-30T14:51:01;24.30;99.60
1992;DHT22;997;48.448;8.924;2023-09-30T14:53:28;24.40;99.80
1992;DHT22;997;48.448;8.924;2023-09-30T14:55:57;24.90;99.90
1992;DHT22;997;48.448;8.924;2023-09-30T14:58:22;25.50;99.60
1992;DHT22;997;48.448;8.924;2023-09-30T15:00:50;26.00;97.00
1992;DHT22;997;48.448;8.924;2023-09-30T15:03:15;26.60;97.60
1992;DHT22;997;48.448;8.924;2023-09-30T15:08:17;26.90;95.30
1992;DHT22;997;48.448;8.924;2023-09-30T15:10:43;26.90;94.20
1992;DHT22;997;48.448;8.924;2023-09-30T15:13:09;26.40;94.50
1992;DHT22;997;48.448;8.924;2023-09-30T15:15:38;25.90;95.00
1992;DHT22;997;48.448;8.924;2023-09-30T15:18:04;25.80;96.40
1992;DHT22;997;48.448;8.924;2023-09-30T15:20:30;26.30;95.70
1992;DHT22;997;48.448;8.924;2023-09-30T15:22:56;26.50;94.20
1992;DHT22;997;48.448;8.924;2023-09-30T15:25:22;26.50;93.00
1992;DHT22;997;48.448;8.924;2023-09-30T15:27:48;26.50;93.00
1992;DHT22;997;48.448;8.924;2023-09-30T15:30:13;26.60;92.90
1992;DHT22;997;48.448;8.924;2023-09-30T15:32:40;26.80;93.10
1992;DHT22;997;48.448;8.924;2023-09-30T15:35:07;27.10;92.70
1992;DHT22;997;48.448;8.924;2023-09-30T15:37:33;27.20;92.80
1992;DHT22;997;48.448;8.924;2023-09-30T15:39:59;27.10;92.30
1992;DHT22;997;48.448;8.924;2023-09-30T15:42:25;26.70;91.20
1992;DHT22;997;48.448;8.924;2023-09-30T15:44:51;26.60;92.30
1992;DHT22;997;48.448;8.924;2023-09-30T15:47:21;26.50;92.30
1992;DHT22;997;48.448;8.924;2023-09-30T15:49:49;26.50;91.90
1992;DHT22;997;48.448;8.924;2023-09-30T15:52:14;26.60;90.70
1992;DHT22;997;48.448;8.924;2023-09-30T15:54:40;26.50;91.10
1992;DHT22;997;48.448;8.924;2023-09-30T15:57:06;26.30;91.30
1992;DHT22;997;48.448;8.924;2023-09-30T15:59:34;26.20;91.60
1992;DHT22;997;48.448;8.924;2023-09-30T16:01:59;26.00;92.00
1992;DHT22;997;48.448;8.924;2023-09-30T16:04:25;26.00;92.40
1992;DHT22;997;48.448;8.924;2023-09-30T16:06:51;25.90;92.10
1992;DHT22;997;48.448;8.924;2023-09-30T16:09:17;25.80;92.40
1992;DHT22;997;48.448;8.924;2023-09-30T16:11:42;25.80;92.20
1992;DHT22;997;48.448;8.924;2023-09-30T16:14:08;25.80;91.80
1992;DHT22;997;48.448;8.924;2023-09-30T16:16:35;25.70;91.70
1992;DHT22;997;48.448;8.924;2023-09-30T16:19:01;25.90;92.50
1992;DHT22;997;48.448;8.924;2023-09-30T16:21:27;25.60;91.70
1992;DHT22;997;48.448;8.924;2023-09-30T16:23:53;25.30;92.70
1992;DHT22;997;48.448;8.924;2023-09-30T16:26:19;25.00;93.20
1992;DHT22;997;48.448;8.924;2023-09-30T16:28:45;24.70;94.30
1992;DHT22;997;48.448;8.924;2023-09-30T16:31:11;24.60;95.20
1992;DHT22;997;48.448;8.924;2023-09-30T16:33:38;24.40;95.90
1992;DHT22;997;48.448;8.924;2023-09-30T16:36:04;24.20;96.50
1992;DHT22;997;48.448;8.924;2023-09-30T16:38:33;24.10;96.50
1992;DHT22;997;48.448;8.924;2023-09-30T16:40:59;23.90;96.90
1992;DHT22;997;48.448;8.924;2023-09-30T16:43:25;23.80;97.20
1992;DHT22;997;48.448;8.924;2023-09-30T16:45:51;23.60;97.80
1992;DHT22;997;48.448;8.924;2023-09-30T16:48:17;23.60;98.20
1992;DHT22;997;48.448;8.924;2023-09-30T16:50:44;23.30;98.20
1992;DHT22;997;48.448;8.924;2023-09-30T16:53:10;23.00;98.30
1992;DHT22;997;48.448;8.924;2023-09-30T16:55:38;22.80;98.90
1992;DHT22;997;48.448;8.924;2023-09-30T16:58:04;22.30;99.70
1992;DHT22;997;48.448;8.924;2023-09-30T17:00:30;22.10;99.90
1992;DHT22;997;48.448;8.924;2023-09-30T17:02:57;21.80;99.90
1992;DHT22;997;48.448;8.924;2023-09-30T17:05:23;21.60;99.90
1992;DHT22;997;48.448;8.924;2023-09-30T17:07:48;21.40;99.90
1992;DHT22;997;48.448;8.924;2023-09-30T17:10:14;21.20;99.90
1992;DHT22;997;48.448;8.924;2023-09-30T17:12:40;21.00;99.90
1992;DHT22;997;48.448;8.924;2023-09-30T17:15:07;20.70;99.90
1992;DHT22;997;48.448;8.924;2023-09-30T17:17:33;20.30;99.90
1992;DHT22;997;48.448;8.924;2023-09-30T17:19:59;20.20;99.90
1992;DHT22;997;48.448;8.924;2023-09-30T17:22:25;20.10;99.90
1992;DHT22;997;48.448;8.924;2023-09-30T17:24:52;20.10;99.90
1992;DHT22;997;48.448;8.924;2023-09-30T17:27:19;20.10;99.90
1992;DHT22;997;48.448;8.924;2023-09-30T17:29:44;20.00;99.90
1992;DHT22;997;48.448;8.924;2023-09-30T17:32:12;19.90;99.90
1992;DHT22;997;48.448;8.924;2023-09-30T17:34:40;19.80;99.90
1992;DHT22;997;48.448;8.924;2023-09-30T17:37:06;19.60;99.90
1992;DHT22;997;48.448;8.924;2023-09-30T17:39:33;19.50;99.90
1992;DHT22;997;48.448;8.924;2023-09-30T17:41:59;19.40;99.90
1992;DHT22;997;48.448;8.924;2023-09-30T17:44:25;19.40;99.90
1992;DHT22;997;48.448;8.924;2023-09-30T17:46:51;19.40;99.90
1992;DHT22;997;48.448;8.924;2023-09-30T17:49:16;19.60;99.90
1992;DHT22;997;48.448;8.924;2023-09-30T17:51:43;19.70;99.90
1992;DHT22;997;48.448;8.924;2023-09-30T17:54:12;19.70;99.90
1992;DHT22;997;48.448;8.924;2023-09-30T17:56:39;19.60;99.90
1992;DHT22;997;48.448;8.924;2023-09-30T17:59:07;19.60;99.90
1992;DHT22;997;48.448;8.924;2023-09-30T18:01:32;19.50;99.90
1992;DHT22;997;48.448;8.924;2023-09-30T18:03:58;19.40;99.90
1992;DHT22;997;48.448;8.924;2023-09-30T18:06:24;19.20;99.90
1992;DHT22;997;48.448;8.924;2023-09-30T18:08:50;19.30;99.90
1992;DHT22;997;48.448;8.924;2023-09-30T18:11:16;19.20;99.90
1992;DHT22;997;48.448;8.924;2023-09-30T18:13:42;19.10;99.90
1992;DHT22;997;48.448;8.924;2023-09-30T18:16:10;19.10;99.90
1992;DHT22;997;48.448;8.924;2023-09-30T18:18:37;19.10;99.90
1992;DHT22;997;48.448;8.924;2023-09-30T18:21:03;19.10;99.90
1992;DHT22;997;48.448;8.924;2023-09-30T18:23:29;18.90;99.90
1992;DHT22;997;48.448;8.924;2023-09-30T18:25:55;18.90;99.90
1992;DHT22;997;48.448;8.924;2023-09-30T18:28:21;18.80;99.90
1992;DHT22;997;48.448;8.924;2023-09-30T18:30:47;18.70;99.90
1992;DHT22;997;48.448;8.924;2023-09-30T18:33:13;18.80;99.90
1992;DHT22;997;48.448;8.924;2023-09-30T18:35:42;18.70;99.90
1992;DHT22;997;48.448;8.924;2023-09-30T18:38:08;18.80;99.90
1992;DHT22;997;48.448;8.924;2023-09-30T18:40:34;18.80;99.90
1992;DHT22;997;48.448;8.924;2023-09-30T18:43:07;18.90;99.90
1992;DHT22;997;48.448;8.924;2023-09-30T18:45:50;19.00;99.90
1992;DHT22;997;48.448;8.924;2023-09-30T18:48:16;19.00;99.90
1992;DHT22;997;48.448;8.924;2023-09-30T18:50:47;19.00;99.90
1992;DHT22;997;48.448;8.924;2023-09-30T18:53:14;19.00;99.90
1992;DHT22;997;48.448;8.924;2023-09-30T18:55:44;19.00;99.90
1992;DHT22;997;48.448;8.924;2023-09-30T18:58:10;18.90;99.90
1992;DHT22;997;48.448;8.924;2023-09-30T19:00:42;18.80;99.90
1992;DHT22;997;48.448;8.924;2023-09-30T19:03:09;18.80;99.90
1992;DHT22;997;48.448;8.924;2023-09-30T19:05:36;18.80;99.90
1992;DHT22;997;48.448;8.924;2023-09-30T19:08:03;18.80;99.90
1992;DHT22;997;48.448;8.924;2023-09-30T19:10:29;18.90;99.90
1992;DHT22;997;48.448;8.924;2023-09-30T19:12:55;18.90;99.90
1992;DHT22;997;48.448;8.924;2023-09-30T19:15:22;18.90;99.90
1992;DHT22;997;48.448;8.924;2023-09-30T19:18:08;18.80;99.90
1992;DHT22;997;48.448;8.924;2023-09-30T19:20:34;18.80;99.90
1992;DHT22;997;48.448;8.924;2023-09-30T19:23:00;18.80;99.90
1992;DHT22;997;48.448;8.924;2023-09-30T19:25:26;18.80;99.90
1992;DHT22;997;48.448;8.924;2023-09-30T19:27:52;18.80;99.90
1992;DHT22;997;48.448;8.924;2023-09-30T19:32:53;18.50;99.90
1992;DHT22;997;48.448;8.924;2023-09-30T19:35:19;18.40;99.90
1992;DHT22;997;48.448;8.924;2023-09-30T19:37:45;18.40;99.90
1992;DHT22;997;48.448;8.924;2023-09-30T19:45:21;18.30;99.90
1992;DHT22;997;48.448;8.924;2023-09-30T19:47:49;18.30;99.90
1992;DHT22;997;48.448;8.924;2023-09-30T19:50:15;18.20;99.90